sensor_id;sensor_type;location;lat;lon;timestamp;P1;durP1;ratioP1;P2;durP2;ratioP2
15818;SDS011;8010;53.986;12.106;2023-06-14T00:00:51;7.17;;;2.23;;
15818;SDS011;8010;53.986;12.106;2023-06-14T00:03:17;3.33;;;2.30;;
15818;SDS011;8010;53.986;12.106;2023-06-14T00:05:44;5.30;;;2.50;;
15818;SDS011;8010;53.986;12.106;2023-06-14T00:08:11;5.53;;;1.90;;
15818;SDS011;8010;53.986;12.106;2023-06-14T00:10:37;3.50;;;2.27;;
15818;SDS011;8010;53.986;12.106;2023-06-14T00:13:05;4.27;;;2.20;;
15818;SDS011;8010;53.986;12.106;2023-06-14T00:15:32;2.67;;;2.20;;
15818;SDS011;8010;53.986;12.106;2023-06-14T00:17:58;3.40;;;2.10;;
15818;SDS011;8010;53.986;12.106;2023-06-14T00:20:27;3.73;;;2.17;;
15818;SDS011;8010;53.986;12.106;2023-06-14T00:22:53;3.90;;;2.40;;
15818;SDS011;8010;53.986;12.106;2023-06-14T00:25:20;5.07;;;1.83;;
15818;SDS011;8010;53.986;12.106;2023-06-14T00:27:47;4.63;;;2.40;;
15818;SDS011;8010;53.986;12.106;2023-06-14T00:30:13;3.97;;;2.07;;
15818;SDS011;8010;53.986;12.106;2023-06-14T00:32:38;3.87;;;2.13;;
15818;SDS011;8010;53.986;12.106;2023-06-14T00:35:04;2.60;;;2.10;;
15818;SDS011;8010;53.986;12.106;2023-06-14T00:37:30;5.20;;;2.23;;
15818;SDS011;8010;53.986;12.106;2023-06-14T00:39:55;7.60;;;2.27;;
15818;SDS011;8010;53.986;12.106;2023-06-14T00:42:24;3.77;;;2.17;;
15818;SDS011;8010;53.986;12.106;2023-06-14T00:44:53;5.60;;;2.40;;
15818;SDS011;8010;53.986;12.106;2023-06-14T00:47:19;3.87;;;2.20;;
15818;SDS011;8010;53.986;12.106;2023-06-14T00:49:45;3.70;;;2.43;;
15818;SDS011;8010;53.986;12.106;2023-06-14T00:52:12;5.20;;;2.33;;
15818;SDS011;8010;53.986;12.106;2023-06-14T00:54:39;5.23;;;2.40;;
15818;SDS011;8010;53.986;12.106;2023-06-14T00:57:06;4.07;;;2.20;;
15818;SDS011;8010;53.986;12.106;2023-06-14T00:59:32;4.63;;;2.20;;
15818;SDS011;8010;53.986;12.106;2023-06-14T01:01:58;3.77;;;2.47;;
15818;SDS011;8010;53.986;12.106;2023-06-14T01:04:23;4.63;;;2.37;;
15818;SDS011;8010;53.986;12.106;2023-06-14T01:12:09;4.50;;;2.60;;
15818;SDS011;8010;53.986;12.106;2023-06-14T01:14:40;3.67;;;2.53;;
15818;SDS011;8010;53.986;12.106;2023-06-14T01:17:07;4.43;;;2.40;;
15818;SDS011;8010;53.986;12.106;2023-06-14T01:19:40;5.07;;;2.40;;
15818;SDS011;8010;53.986;12.106;2023-06-14T01:22:07;4.37;;;2.23;;
15818;SDS011;8010;53.986;12.106;2023-06-14T01:24:33;3.53;;;2.53;;
15818;SDS011;8010;53.986;12.106;2023-06-14T01:26:59;5.50;;;2.30;;
15818;SDS011;8010;53.986;12.106;2023-06-14T01:29:26;6.47;;;2.30;;
15818;SDS011;8010;53.986;12.106;2023-06-14T01:31:57;4.83;;;2.33;;
15818;SDS011;8010;53.986;12.106;2023-06-14T01:34:23;3.43;;;2.30;;
15818;SDS011;8010;53.986;12.106;2023-06-14T01:36:48;7.10;;;2.50;;
15818;SDS011;8010;53.986;12.106;2023-06-14T01:39:15;6.37;;;2.30;;
15818;SDS011;8010;53.986;12.106;2023-06-14T01:41:42;8.63;;;2.50;;
15818;SDS011;8010;53.986;12.106;2023-06-14T01:44:10;3.20;;;2.40;;
15818;SDS011;8010;53.986;12.106;2023-06-14T01:46:37;3.73;;;2.37;;
15818;SDS011;8010;53.986;12.106;2023-06-14T01:49:03;3.47;;;2.10;;
15818;SDS011;8010;53.986;12.106;2023-06-14T01:51:29;3.43;;;2.80;;
15818;SDS011;8010;53.986;12.106;2023-06-14T01:53:54;3.37;;;2.40;;
15818;SDS011;8010;53.986;12.106;2023-06-14T01:56:20;4.27;;;2.37;;
15818;SDS011;8010;53.986;12.106;2023-06-14T01:58:46;4.37;;;2.80;;
15818;SDS011;8010;53.986;12.106;2023-06-14T02:04:35;6.37;;;2.50;;
15818;SDS011;8010;53.986;12.106;2023-06-14T02:07:01;4.50;;;2.63;;
15818;SDS011;8010;53.986;12.106;2023-06-14T02:09:26;3.00;;;2.30;;
15818;SDS011;8010;53.986;12.106;2023-06-14T02:11:52;3.17;;;2.10;;
15818;SDS011;8010;53.986;12.106;2023-06-14T02:14:17;4.20;;;2.47;;
15818;SDS011;8010;53.986;12.106;2023-06-14T02:16:43;5.67;;;2.10;;
15818;SDS011;8010;53.986;12.106;2023-06-14T02:19:14;4.97;;;2.20;;
15818;SDS011;8010;53.986;12.106;2023-06-14T02:21:41;3.30;;;2.13;;
15818;SDS011;8010;53.986;12.106;2023-06-14T02:24:06;3.97;;;2.30;;
15818;SDS011;8010;53.986;12.106;2023-06-14T02:26:32;5.00;;;2.67;;
15818;SDS011;8010;53.986;12.106;2023-06-14T02:28:57;4.23;;;2.40;;
15818;SDS011;8010;53.986;12.106;2023-06-14T02:31:23;4.13;;;2.03;;
15818;SDS011;8010;53.986;12.106;2023-06-14T02:33:49;4.80;;;2.40;;
15818;SDS011;8010;53.986;12.106;2023-06-14T02:36:14;4.93;;;2.40;;
15818;SDS011;8010;53.986;12.106;2023-06-14T02:38:40;2.50;;;2.20;;
15818;SDS011;8010;53.986;12.106;2023-06-14T02:41:06;4.50;;;2.37;;
15818;SDS011;8010;53.986;12.106;2023-06-14T02:43:31;4.00;;;1.93;;
15818;SDS011;8010;53.986;12.106;2023-06-14T02:45:57;3.90;;;2.10;;
15818;SDS011;8010;53.986;12.106;2023-06-14T02:48:22;2.57;;;2.00;;
15818;SDS011;8010;53.986;12.106;2023-06-14T02:50:48;3.50;;;2.33;;
15818;SDS011;8010;53.986;12.106;2023-06-14T02:53:13;5.03;;;2.00;;
15818;SDS011;8010;53.986;12.106;2023-06-14T02:55:39;3.60;;;1.97;;
15818;SDS011;8010;53.986;12.106;2023-06-14T02:58:05;3.53;;;2.20;;
15818;SDS011;8010;53.986;12.106;2023-06-14T03:00:31;4.13;;;2.80;;
15818;SDS011;8010;53.986;12.106;2023-06-14T03:02:57;4.70;;;2.63;;
15818;SDS011;8010;53.986;12.106;2023-06-14T03:05:26;4.00;;;2.27;;
15818;SDS011;8010;53.986;12.106;2023-06-14T03:07:53;2.83;;;1.90;;
15818;SDS011;8010;53.986;12.106;2023-06-14T03:10:18;3.60;;;2.40;;
15818;SDS011;8010;53.986;12.106;2023-06-14T03:12:44;4.90;;;2.03;;
15818;SDS011;8010;53.986;12.106;2023-06-14T03:15:10;3.87;;;2.43;;
15818;SDS011;8010;53.986;12.106;2023-06-14T03:17:37;3.07;;;1.80;;
15818;SDS011;8010;53.986;12.106;2023-06-14T03:20:03;4.73;;;2.43;;
15818;SDS011;8010;53.986;12.106;2023-06-14T03:22:30;18.90;;;2.83;;
15818;SDS011;8010;53.986;12.106;2023-06-14T03:24:58;21.87;;;4.20;;
15818;SDS011;8010;53.986;12.106;2023-06-14T03:27:24;8.80;;;3.70;;
15818;SDS011;8010;53.986;12.106;2023-06-14T03:29:50;6.33;;;2.13;;
15818;SDS011;8010;53.986;12.106;2023-06-14T03:32:16;7.90;;;2.53;;
15818;SDS011;8010;53.986;12.106;2023-06-14T03:34:42;6.70;;;2.90;;
15818;SDS011;8010;53.986;12.106;2023-06-14T03:37:07;6.83;;;2.20;;
15818;SDS011;8010;53.986;12.106;2023-06-14T03:39:33;5.83;;;2.50;;
15818;SDS011;8010;53.986;12.106;2023-06-14T03:41:58;3.97;;;2.50;;
15818;SDS011;8010;53.986;12.106;2023-06-14T03:44:26;3.53;;;2.50;;
15818;SDS011;8010;53.986;12.106;2023-06-14T03:46:52;4.30;;;2.87;;
15818;SDS011;8010;53.986;12.106;2023-06-14T03:49:18;5.53;;;2.47;;
15818;SDS011;8010;53.986;12.106;2023-06-14T03:51:43;5.10;;;2.80;;
15818;SDS011;8010;53.986;12.106;2023-06-14T03:54:09;3.07;;;2.20;;
15818;SDS011;8010;53.986;12.106;2023-06-14T03:56:35;6.27;;;2.30;;
15818;SDS011;8010;53.986;12.106;2023-06-14T03:59:01;4.23;;;2.30;;
15818;SDS011;8010;53.986;12.106;2023-06-14T04:01:27;4.70;;;2.17;;
15818;SDS011;8010;53.986;12.106;2023-06-14T04:03:55;6.87;;;2.87;;
15818;SDS011;8010;53.986;12.106;2023-06-14T04:06:22;7.27;;;2.63;;
15818;SDS011;8010;53.986;12.106;2023-06-14T04:08:49;7.07;;;2.80;;
15818;SDS011;8010;53.986;12.106;2023-06-14T04:11:15;3.13;;;2.30;;
15818;SDS011;8010;53.986;12.106;2023-06-14T04:13:41;6.17;;;2.27;;
15818;SDS011;8010;53.986;12.106;2023-06-14T04:16:07;4.47;;;2.73;;
15818;SDS011;8010;53.986;12.106;2023-06-14T04:18:32;5.13;;;2.53;;
15818;SDS011;8010;53.986;12.106;2023-06-14T04:20:58;8.30;;;2.60;;
15818;SDS011;8010;53.986;12.106;2023-06-14T04:23:24;6.43;;;2.77;;
15818;SDS011;8010;53.986;12.106;2023-06-14T04:25:49;3.10;;;2.37;;
15818;SDS011;8010;53.986;12.106;2023-06-14T04:28:15;3.57;;;2.57;;
15818;SDS011;8010;53.986;12.106;2023-06-14T04:30:42;2.53;;;2.33;;
15818;SDS011;8010;53.986;12.106;2023-06-14T04:33:09;4.53;;;2.97;;
15818;SDS011;8010;53.986;12.106;2023-06-14T04:35:35;5.00;;;2.70;;
15818;SDS011;8010;53.986;12.106;2023-06-14T04:38:02;4.67;;;2.90;;
15818;SDS011;8010;53.986;12.106;2023-06-14T04:40:30;4.63;;;2.73;;
15818;SDS011;8010;53.986;12.106;2023-06-14T04:42:58;6.63;;;2.40;;
15818;SDS011;8010;53.986;12.106;2023-06-14T04:45:24;3.77;;;2.43;;
15818;SDS011;8010;53.986;12.106;2023-06-14T04:47:56;3.83;;;2.97;;
15818;SDS011;8010;53.986;12.106;2023-06-14T04:50:24;4.63;;;2.90;;
15818;SDS011;8010;53.986;12.106;2023-06-14T04:52:49;5.07;;;2.60;;
15818;SDS011;8010;53.986;12.106;2023-06-14T04:55:16;4.47;;;2.93;;
15818;SDS011;8010;53.986;12.106;2023-06-14T04:57:44;9.03;;;3.03;;
15818;SDS011;8010;53.986;12.106;2023-06-14T05:00:09;4.73;;;3.00;;
15818;SDS011;8010;53.986;12.106;2023-06-14T05:02:36;6.03;;;3.30;;
15818;SDS011;8010;53.986;12.106;2023-06-14T05:05:03;7.60;;;2.90;;
15818;SDS011;8010;53.986;12.106;2023-06-14T05:07:32;4.40;;;2.53;;
15818;SDS011;8010;53.986;12.106;2023-06-14T05:09:58;4.23;;;3.10;;
15818;SDS011;8010;53.986;12.106;2023-06-14T05:12:24;12.97;;;3.67;;
15818;SDS011;8010;53.986;12.106;2023-06-14T05:14:50;5.40;;;3.13;;
15818;SDS011;8010;53.986;12.106;2023-06-14T05:17:15;5.57;;;2.77;;
15818;SDS011;8010;53.986;12.106;2023-06-14T05:19:42;6.07;;;3.20;;
15818;SDS011;8010;53.986;12.106;2023-06-14T05:22:07;4.40;;;3.20;;
15818;SDS011;8010;53.986;12.106;2023-06-14T05:24:33;6.70;;;3.40;;
15818;SDS011;8010;53.986;12.106;2023-06-14T05:26:58;8.03;;;2.97;;
15818;SDS011;8010;53.986;12.106;2023-06-14T05:29:24;9.13;;;3.00;;
15818;SDS011;8010;53.986;12.106;2023-06-14T05:31:50;7.00;;;2.90;;
15818;SDS011;8010;53.986;12.106;2023-06-14T05:34:16;4.80;;;2.40;;
15818;SDS011;8010;53.986;12.106;2023-06-14T05:36:42;5.17;;;3.30;;
15818;SDS011;8010;53.986;12.106;2023-06-14T05:39:07;5.83;;;2.97;;
15818;SDS011;8010;53.986;12.106;2023-06-14T05:41:33;5.43;;;3.03;;
15818;SDS011;8010;53.986;12.106;2023-06-14T05:43:59;5.30;;;3.20;;
15818;SDS011;8010;53.986;12.106;2023-06-14T05:46:25;7.90;;;3.17;;
15818;SDS011;8010;53.986;12.106;2023-06-14T05:48:51;4.37;;;2.80;;
15818;SDS011;8010;53.986;12.106;2023-06-14T05:51:17;6.50;;;3.07;;
15818;SDS011;8010;53.986;12.106;2023-06-14T05:53:46;3.47;;;2.50;;
15818;SDS011;8010;53.986;12.106;2023-06-14T05:56:12;4.20;;;3.13;;
15818;SDS011;8010;53.986;12.106;2023-06-14T05:58:38;2.93;;;2.63;;
15818;SDS011;8010;53.986;12.106;2023-06-14T06:01:04;4.20;;;3.07;;
15818;SDS011;8010;53.986;12.106;2023-06-14T06:03:30;5.73;;;3.20;;
15818;SDS011;8010;53.986;12.106;2023-06-14T06:05:55;3.70;;;3.00;;
15818;SDS011;8010;53.986;12.106;2023-06-14T06:08:21;4.87;;;2.50;;
15818;SDS011;8010;53.986;12.106;2023-06-14T06:10:46;3.70;;;2.47;;
15818;SDS011;8010;53.986;12.106;2023-06-14T06:13:12;4.77;;;2.93;;
15818;SDS011;8010;53.986;12.106;2023-06-14T06:15:38;7.83;;;3.40;;
15818;SDS011;8010;53.986;12.106;2023-06-14T06:18:03;8.23;;;3.53;;
15818;SDS011;8010;53.986;12.106;2023-06-14T06:20:29;4.77;;;2.73;;
15818;SDS011;8010;53.986;12.106;2023-06-14T06:22:56;5.80;;;2.87;;
15818;SDS011;8010;53.986;12.106;2023-06-14T06:25:25;5.73;;;2.67;;
15818;SDS011;8010;53.986;12.106;2023-06-14T06:27:52;4.23;;;2.67;;
15818;SDS011;8010;53.986;12.106;2023-06-14T06:30:19;4.37;;;2.43;;
15818;SDS011;8010;53.986;12.106;2023-06-14T06:32:44;3.70;;;2.37;;
15818;SDS011;8010;53.986;12.106;2023-06-14T06:35:10;6.30;;;2.93;;
15818;SDS011;8010;53.986;12.106;2023-06-14T06:37:37;5.97;;;2.60;;
15818;SDS011;8010;53.986;12.106;2023-06-14T06:40:03;7.37;;;2.50;;
15818;SDS011;8010;53.986;12.106;2023-06-14T06:42:30;6.93;;;2.40;;
15818;SDS011;8010;53.986;12.106;2023-06-14T06:44:59;6.70;;;2.33;;
15818;SDS011;8010;53.986;12.106;2023-06-14T06:47:25;3.53;;;2.20;;
15818;SDS011;8010;53.986;12.106;2023-06-14T06:49:50;7.23;;;2.33;;
15818;SDS011;8010;53.986;12.106;2023-06-14T06:52:16;4.17;;;2.50;;
15818;SDS011;8010;53.986;12.106;2023-06-14T06:54:42;5.53;;;2.40;;
15818;SDS011;8010;53.986;12.106;2023-06-14T06:57:07;5.63;;;2.27;;
15818;SDS011;8010;53.986;12.106;2023-06-14T06:59:33;5.07;;;2.63;;
15818;SDS011;8010;53.986;12.106;2023-06-14T07:01:59;2.97;;;2.27;;
15818;SDS011;8010;53.986;12.106;2023-06-14T07:04:25;3.53;;;2.17;;
15818;SDS011;8010;53.986;12.106;2023-06-14T07:06:50;5.80;;;2.43;;
15818;SDS011;8010;53.986;12.106;2023-06-14T07:09:16;4.53;;;3.00;;
15818;SDS011;8010;53.986;12.106;2023-06-14T07:11:43;3.33;;;2.40;;
15818;SDS011;8010;53.986;12.106;2023-06-14T07:14:09;4.00;;;2.37;;
15818;SDS011;8010;53.986;12.106;2023-06-14T07:16:34;4.73;;;2.40;;
15818;SDS011;8010;53.986;12.106;2023-06-14T07:19:01;3.70;;;2.10;;
15818;SDS011;8010;53.986;12.106;2023-06-14T07:21:27;5.13;;;2.60;;
15818;SDS011;8010;53.986;12.106;2023-06-14T07:23:53;7.63;;;2.77;;
15818;SDS011;8010;53.986;12.106;2023-06-14T07:26:19;5.47;;;2.63;;
15818;SDS011;8010;53.986;12.106;2023-06-14T07:28:46;3.53;;;2.40;;
15818;SDS011;8010;53.986;12.106;2023-06-14T07:31:12;5.20;;;2.20;;
15818;SDS011;8010;53.986;12.106;2023-06-14T07:33:39;4.13;;;2.40;;
15818;SDS011;8010;53.986;12.106;2023-06-14T07:36:05;5.03;;;2.17;;
15818;SDS011;8010;53.986;12.106;2023-06-14T07:38:31;4.10;;;2.33;;
15818;SDS011;8010;53.986;12.106;2023-06-14T07:40:56;4.33;;;2.47;;
15818;SDS011;8010;53.986;12.106;2023-06-14T07:43:22;3.97;;;2.23;;
15818;SDS011;8010;53.986;12.106;2023-06-14T07:45:47;5.77;;;2.60;;
15818;SDS011;8010;53.986;12.106;2023-06-14T07:48:13;7.03;;;2.70;;
15818;SDS011;8010;53.986;12.106;2023-06-14T07:50:38;3.53;;;2.50;;
15818;SDS011;8010;53.986;12.106;2023-06-14T07:53:04;4.03;;;2.47;;
15818;SDS011;8010;53.986;12.106;2023-06-14T07:55:29;5.27;;;2.27;;
15818;SDS011;8010;53.986;12.106;2023-06-14T07:57:57;3.33;;;2.53;;
15818;SDS011;8010;53.986;12.106;2023-06-14T08:00:23;3.53;;;2.30;;
15818;SDS011;8010;53.986;12.106;2023-06-14T08:02:49;3.40;;;2.30;;
15818;SDS011;8010;53.986;12.106;2023-06-14T08:05:17;4.00;;;2.40;;
15818;SDS011;8010;53.986;12.106;2023-06-14T08:07:42;3.23;;;2.07;;
15818;SDS011;8010;53.986;12.106;2023-06-14T08:10:08;6.53;;;2.10;;
15818;SDS011;8010;53.986;12.106;2023-06-14T08:12:33;2.40;;;2.13;;
15818;SDS011;8010;53.986;12.106;2023-06-14T08:14:59;3.07;;;1.90;;
15818;SDS011;8010;53.986;12.106;2023-06-14T08:17:25;2.70;;;1.83;;
15818;SDS011;8010;53.986;12.106;2023-06-14T08:19:51;3.90;;;1.90;;
15818;SDS011;8010;53.986;12.106;2023-06-14T08:22:19;3.27;;;1.97;;
15818;SDS011;8010;53.986;12.106;2023-06-14T08:24:46;2.33;;;1.93;;
15818;SDS011;8010;53.986;12.106;2023-06-14T08:27:12;4.40;;;1.80;;
15818;SDS011;8010;53.986;12.106;2023-06-14T08:29:38;5.87;;;2.07;;
15818;SDS011;8010;53.986;12.106;2023-06-14T08:32:05;3.63;;;1.97;;
15818;SDS011;8010;53.986;12.106;2023-06-14T08:34:31;4.33;;;1.57;;
15818;SDS011;8010;53.986;12.106;2023-06-14T08:36:57;4.60;;;1.83;;
15818;SDS011;8010;53.986;12.106;2023-06-14T08:39:22;5.60;;;1.97;;
15818;SDS011;8010;53.986;12.106;2023-06-14T08:41:48;3.80;;;2.30;;
15818;SDS011;8010;53.986;12.106;2023-06-14T08:44:16;3.83;;;1.80;;
15818;SDS011;8010;53.986;12.106;2023-06-14T08:46:42;5.07;;;1.90;;
15818;SDS011;8010;53.986;12.106;2023-06-14T08:49:08;4.17;;;1.97;;
15818;SDS011;8010;53.986;12.106;2023-06-14T08:51:37;4.57;;;1.93;;
15818;SDS011;8010;53.986;12.106;2023-06-14T08:54:03;3.70;;;1.80;;
15818;SDS011;8010;53.986;12.106;2023-06-14T08:56:30;2.77;;;1.80;;
15818;SDS011;8010;53.986;12.106;2023-06-14T08:58:59;3.30;;;1.87;;
15818;SDS011;8010;53.986;12.106;2023-06-14T09:01:28;3.63;;;2.10;;
15818;SDS011;8010;53.986;12.106;2023-06-14T09:03:59;4.93;;;1.70;;
15818;SDS011;8010;53.986;12.106;2023-06-14T09:06:24;4.90;;;2.00;;
15818;SDS011;8010;53.986;12.106;2023-06-14T09:08:50;4.87;;;2.00;;
15818;SDS011;8010;53.986;12.106;2023-06-14T09:11:17;4.03;;;1.70;;
15818;SDS011;8010;53.986;12.106;2023-06-14T09:13:44;5.47;;;1.90;;
15818;SDS011;8010;53.986;12.106;2023-06-14T09:16:11;2.60;;;1.80;;
15818;SDS011;8010;53.986;12.106;2023-06-14T09:18:41;2.90;;;1.97;;
15818;SDS011;8010;53.986;12.106;2023-06-14T09:21:09;2.57;;;1.90;;
15818;SDS011;8010;53.986;12.106;2023-06-14T09:23:39;6.23;;;2.07;;
15818;SDS011;8010;53.986;12.106;2023-06-14T09:26:13;3.07;;;2.10;;
15818;SDS011;8010;53.986;12.106;2023-06-14T09:28:43;5.53;;;2.30;;
15818;SDS011;8010;53.986;12.106;2023-06-14T09:31:11;2.40;;;1.70;;
15818;SDS011;8010;53.986;12.106;2023-06-14T09:33:44;4.07;;;2.20;;
15818;SDS011;8010;53.986;12.106;2023-06-14T09:36:23;3.17;;;1.70;;
15818;SDS011;8010;53.986;12.106;2023-06-14T09:39:00;3.67;;;1.93;;
15818;SDS011;8010;53.986;12.106;2023-06-14T09:41:40;6.33;;;2.13;;
15818;SDS011;8010;53.986;12.106;2023-06-14T09:44:08;2.33;;;2.07;;
15818;SDS011;8010;53.986;12.106;2023-06-14T09:46:35;7.20;;;2.30;;
15818;SDS011;8010;53.986;12.106;2023-06-14T09:49:02;3.03;;;2.30;;
15818;SDS011;8010;53.986;12.106;2023-06-14T09:51:28;2.13;;;1.70;;
15818;SDS011;8010;53.986;12.106;2023-06-14T09:54:01;6.40;;;1.80;;
15818;SDS011;8010;53.986;12.106;2023-06-14T09:56:32;4.00;;;2.13;;
15818;SDS011;8010;53.986;12.106;2023-06-14T09:59:01;3.17;;;1.93;;
15818;SDS011;8010;53.986;12.106;2023-06-14T10:01:30;2.53;;;1.93;;
15818;SDS011;8010;53.986;12.106;2023-06-14T10:04:06;4.30;;;1.87;;
15818;SDS011;8010;53.986;12.106;2023-06-14T10:06:34;3.00;;;1.90;;
15818;SDS011;8010;53.986;12.106;2023-06-14T10:09:02;2.73;;;1.70;;
15818;SDS011;8010;53.986;12.106;2023-06-14T10:11:30;2.73;;;2.17;;
15818;SDS011;8010;53.986;12.106;2023-06-14T10:13:57;2.23;;;1.53;;
15818;SDS011;8010;53.986;12.106;2023-06-14T10:16:28;3.60;;;1.90;;
15818;SDS011;8010;53.986;12.106;2023-06-14T10:24:17;3.23;;;2.57;;
15818;SDS011;8010;53.986;12.106;2023-06-14T10:26:51;2.90;;;1.60;;
15818;SDS011;8010;53.986;12.106;2023-06-14T10:29:18;3.67;;;1.90;;
15818;SDS011;8010;53.986;12.106;2023-06-14T10:31:44;4.40;;;2.03;;
15818;SDS011;8010;53.986;12.106;2023-06-14T10:34:12;4.73;;;1.87;;
15818;SDS011;8010;53.986;12.106;2023-06-14T10:36:50;4.53;;;2.00;;
15818;SDS011;8010;53.986;12.106;2023-06-14T10:39:26;3.23;;;1.90;;
15818;SDS011;8010;53.986;12.106;2023-06-14T10:41:53;2.77;;;1.70;;
15818;SDS011;8010;53.986;12.106;2023-06-14T10:49:18;3.00;;;1.60;;
15818;SDS011;8010;53.986;12.106;2023-06-14T10:51:44;3.83;;;2.00;;
15818;SDS011;8010;53.986;12.106;2023-06-14T10:54:22;3.40;;;1.90;;
15818;SDS011;8010;53.986;12.106;2023-06-14T10:56:49;5.00;;;1.70;;
15818;SDS011;8010;53.986;12.106;2023-06-14T10:59:16;4.23;;;1.90;;
15818;SDS011;8010;53.986;12.106;2023-06-14T11:04:54;2.93;;;2.10;;
15818;SDS011;8010;53.986;12.106;2023-06-14T11:07:38;2.83;;;1.87;;
15818;SDS011;8010;53.986;12.106;2023-06-14T11:10:16;4.10;;;2.00;;
15818;SDS011;8010;53.986;12.106;2023-06-14T11:12:58;2.80;;;1.80;;
15818;SDS011;8010;53.986;12.106;2023-06-14T11:15:27;4.47;;;1.80;;
15818;SDS011;8010;53.986;12.106;2023-06-14T11:17:57;4.43;;;1.50;;
15818;SDS011;8010;53.986;12.106;2023-06-14T11:20:25;4.53;;;1.57;;
15818;SDS011;8010;53.986;12.106;2023-06-14T11:22:52;2.83;;;1.70;;
15818;SDS011;8010;53.986;12.106;2023-06-14T11:25:18;4.73;;;1.67;;
15818;SDS011;8010;53.986;12.106;2023-06-14T11:27:44;7.50;;;1.97;;
15818;SDS011;8010;53.986;12.106;2023-06-14T11:30:11;3.97;;;1.53;;
15818;SDS011;8010;53.986;12.106;2023-06-14T11:32:38;2.67;;;1.70;;
15818;SDS011;8010;53.986;12.106;2023-06-14T11:35:04;3.80;;;1.47;;
15818;SDS011;8010;53.986;12.106;2023-06-14T11:37:30;1.57;;;1.47;;
15818;SDS011;8010;53.986;12.106;2023-06-14T11:39:59;3.30;;;1.40;;
15818;SDS011;8010;53.986;12.106;2023-06-14T11:42:28;2.30;;;1.50;;
15818;SDS011;8010;53.986;12.106;2023-06-14T11:44:55;2.60;;;1.50;;
15818;SDS011;8010;53.986;12.106;2023-06-14T11:47:21;2.90;;;1.70;;
15818;SDS011;8010;53.986;12.106;2023-06-14T11:49:47;2.27;;;1.63;;
15818;SDS011;8010;53.986;12.106;2023-06-14T11:52:13;3.80;;;1.70;;
15818;SDS011;8010;53.986;12.106;2023-06-14T11:54:39;6.47;;;1.60;;
15818;SDS011;8010;53.986;12.106;2023-06-14T11:57:06;4.23;;;1.93;;
15818;SDS011;8010;53.986;12.106;2023-06-14T11:59:38;3.83;;;2.10;;
15818;SDS011;8010;53.986;12.106;2023-06-14T12:02:04;2.83;;;1.70;;
15818;SDS011;8010;53.986;12.106;2023-06-14T12:04:31;2.23;;;1.73;;
15818;SDS011;8010;53.986;12.106;2023-06-14T12:06:57;1.73;;;1.60;;
15818;SDS011;8010;53.986;12.106;2023-06-14T12:09:34;4.43;;;1.60;;
15818;SDS011;8010;53.986;12.106;2023-06-14T12:12:00;1.93;;;1.50;;
15818;SDS011;8010;53.986;12.106;2023-06-14T12:14:29;4.30;;;1.60;;
15818;SDS011;8010;53.986;12.106;2023-06-14T12:17:04;3.53;;;1.40;;
15818;SDS011;8010;53.986;12.106;2023-06-14T12:19:33;5.13;;;1.70;;
15818;SDS011;8010;53.986;12.106;2023-06-14T12:22:06;3.23;;;1.87;;
15818;SDS011;8010;53.986;12.106;2023-06-14T12:24:34;2.73;;;1.73;;
15818;SDS011;8010;53.986;12.106;2023-06-14T12:26:59;2.30;;;1.70;;
15818;SDS011;8010;53.986;12.106;2023-06-14T12:29:25;3.03;;;1.90;;
15818;SDS011;8010;53.986;12.106;2023-06-14T12:31:50;2.97;;;1.30;;
15818;SDS011;8010;53.986;12.106;2023-06-14T12:34:18;3.13;;;1.63;;
15818;SDS011;8010;53.986;12.106;2023-06-14T12:36:44;2.07;;;1.50;;
15818;SDS011;8010;53.986;12.106;2023-06-14T12:39:11;2.80;;;1.80;;
15818;SDS011;8010;53.986;12.106;2023-06-14T12:41:37;5.63;;;2.33;;
15818;SDS011;8010;53.986;12.106;2023-06-14T12:44:03;4.07;;;1.70;;
15818;SDS011;8010;53.986;12.106;2023-06-14T12:46:31;2.10;;;1.63;;
15818;SDS011;8010;53.986;12.106;2023-06-14T12:48:57;3.13;;;1.80;;
15818;SDS011;8010;53.986;12.106;2023-06-14T12:51:22;2.57;;;2.07;;
15818;SDS011;8010;53.986;12.106;2023-06-14T12:53:49;2.70;;;1.77;;
15818;SDS011;8010;53.986;12.106;2023-06-14T12:56:15;2.10;;;1.90;;
15818;SDS011;8010;53.986;12.106;2023-06-14T12:58:41;2.97;;;1.70;;
15818;SDS011;8010;53.986;12.106;2023-06-14T13:01:07;2.38;;;1.50;;
15818;SDS011;8010;53.986;12.106;2023-06-14T13:03:32;3.53;;;1.90;;
15818;SDS011;8010;53.986;12.106;2023-06-14T13:05:59;8.60;;;2.10;;
15818;SDS011;8010;53.986;12.106;2023-06-14T13:08:25;6.17;;;2.00;;
15818;SDS011;8010;53.986;12.106;2023-06-14T13:10:51;3.30;;;1.92;;
15818;SDS011;8010;53.986;12.106;2023-06-14T13:13:16;1.73;;;1.63;;
15818;SDS011;8010;53.986;12.106;2023-06-14T13:15:42;2.63;;;1.70;;
15818;SDS011;8010;53.986;12.106;2023-06-14T13:18:08;4.30;;;1.70;;
15818;SDS011;8010;53.986;12.106;2023-06-14T13:20:34;4.32;;;2.08;;
15818;SDS011;8010;53.986;12.106;2023-06-14T13:23:00;3.47;;;1.80;;
15818;SDS011;8010;53.986;12.106;2023-06-14T13:25:27;2.55;;;1.60;;
15818;SDS011;8010;53.986;12.106;2023-06-14T13:27:52;3.43;;;1.83;;
15818;SDS011;8010;53.986;12.106;2023-06-14T13:30:18;2.13;;;1.75;;
15818;SDS011;8010;53.986;12.106;2023-06-14T13:32:43;1.70;;;1.60;;
15818;SDS011;8010;53.986;12.106;2023-06-14T13:35:09;2.73;;;1.70;;
15818;SDS011;8010;53.986;12.106;2023-06-14T13:37:34;4.68;;;1.83;;
15818;SDS011;8010;53.986;12.106;2023-06-14T13:40:00;5.28;;;2.00;;
15818;SDS011;8010;53.986;12.106;2023-06-14T13:42:26;5.82;;;1.95;;
15818;SDS011;8010;53.986;12.106;2023-06-14T13:44:51;11.05;;;2.28;;
15818;SDS011;8010;53.986;12.106;2023-06-14T13:47:17;2.47;;;1.87;;
15818;SDS011;8010;53.986;12.106;2023-06-14T13:49:43;2.40;;;1.73;;
15818;SDS011;8010;53.986;12.106;2023-06-14T13:52:08;5.00;;;1.87;;
15818;SDS011;8010;53.986;12.106;2023-06-14T13:54:34;3.20;;;1.93;;
15818;SDS011;8010;53.986;12.106;2023-06-14T13:57:00;4.78;;;1.90;;
15818;SDS011;8010;53.986;12.106;2023-06-14T13:59:26;3.50;;;1.70;;
15818;SDS011;8010;53.986;12.106;2023-06-14T14:01:51;19.67;;;2.57;;
15818;SDS011;8010;53.986;12.106;2023-06-14T14:04:17;3.43;;;1.90;;
15818;SDS011;8010;53.986;12.106;2023-06-14T14:06:43;2.97;;;1.80;;
15818;SDS011;8010;53.986;12.106;2023-06-14T14:09:08;4.63;;;1.60;;
15818;SDS011;8010;53.986;12.106;2023-06-14T14:11:34;3.33;;;1.77;;
15818;SDS011;8010;53.986;12.106;2023-06-14T14:14:00;2.50;;;1.77;;
15818;SDS011;8010;53.986;12.106;2023-06-14T14:16:26;5.47;;;2.23;;
15818;SDS011;8010;53.986;12.106;2023-06-14T14:18:51;12.50;;;2.20;;
15818;SDS011;8010;53.986;12.106;2023-06-14T14:21:17;2.93;;;1.60;;
15818;SDS011;8010;53.986;12.106;2023-06-14T14:23:42;49.03;;;4.50;;
15818;SDS011;8010;53.986;12.106;2023-06-14T14:26:09;3.57;;;1.70;;
15818;SDS011;8010;53.986;12.106;2023-06-14T14:28:34;4.20;;;1.80;;
15818;SDS011;8010;53.986;12.106;2023-06-14T14:31:00;1.75;;;1.50;;
15818;SDS011;8010;53.986;12.106;2023-06-14T14:33:26;2.23;;;1.70;;
15818;SDS011;8010;53.986;12.106;2023-06-14T14:35:52;4.20;;;1.43;;
15818;SDS011;8010;53.986;12.106;2023-06-14T14:38:17;2.90;;;1.87;;
15818;SDS011;8010;53.986;12.106;2023-06-14T14:40:43;5.17;;;2.10;;
15818;SDS011;8010;53.986;12.106;2023-06-14T14:43:10;5.87;;;1.73;;
15818;SDS011;8010;53.986;12.106;2023-06-14T14:45:36;2.77;;;1.80;;
15818;SDS011;8010;53.986;12.106;2023-06-14T14:48:01;8.13;;;2.10;;
15818;SDS011;8010;53.986;12.106;2023-06-14T14:50:27;3.47;;;2.17;;
15818;SDS011;8010;53.986;12.106;2023-06-14T14:52:53;4.70;;;1.80;;
15818;SDS011;8010;53.986;12.106;2023-06-14T14:55:19;2.30;;;1.73;;
15818;SDS011;8010;53.986;12.106;2023-06-14T14:57:45;5.57;;;1.50;;
15818;SDS011;8010;53.986;12.106;2023-06-14T15:00:12;2.90;;;1.70;;
15818;SDS011;8010;53.986;12.106;2023-06-14T15:02:37;5.53;;;1.77;;
15818;SDS011;8010;53.986;12.106;2023-06-14T15:05:03;2.13;;;1.40;;
15818;SDS011;8010;53.986;12.106;2023-06-14T15:07:29;4.53;;;1.80;;